Time;durP1;ratioP1;P1;durP2;ratioP2;P2;SDS_P1;SDS_P2;PMS_P1;PMS_P2;Temp;Humidity;BMP_temperature;BMP_pressure;BME280_temperature;BME280_humidity;BME280_pressure;Samples;Min_cycle;Max_cycle;Signal;HPM_P1;HPM_P2
2022/11/02 00:00:16;;;;;;;0.28;0.28;;;;;;;;;;5026808;28;20025;-71
2022/11/02 00:02:41;;;;;;;0.30;0.30;;;;;;;;;;5025939;28;20132;-72
2022/11/02 00:05:09;;;;;;;0.20;0.20;;;;;;;;;;5027471;28;20151;-71
2022/11/02 00:07:35;;;;;;;0.10;0.10;;;;;;;;;;5027329;28;20029;-71
2022/11/02 00:10:00;;;;;;;2.35;2.25;;;;;;;;;;5027457;28;20032;-71
2022/11/02 00:12:26;;;;;;;0.30;0.30;;;;;;;;;;5028097;28;20473;-72
2022/11/02 00:14:56;;;;;;;1.17;1.17;;;;;;;;;;5030075;28;20033;-71
2022/11/02 00:17:22;;;;;;;0.10;0.10;;;;;;;;;;5032252;28;20045;-72
2022/11/02 00:19:47;;;;;;;0.47;0.47;;;;;;;;;;5033399;28;20372;-72
2022/11/02 00:22:13;;;;;;;0.32;0.32;;;;;;;;;;5032463;28;20365;-70
2022/11/02 00:24:38;;;;;;;0.20;0.20;;;;;;;;;;5032802;28;20022;-72
2022/11/02 00:27:04;;;;;;;0.10;0.10;;;;;;;;;;5032816;28;20029;-72
2022/11/02 00:29:29;;;;;;;0.10;0.10;;;;;;;;;;5032375;28;20033;-71
2022/11/02 00:31:55;;;;;;;0.10;0.10;;;;;;;;;;5032582;28;20025;-71
2022/11/02 00:34:21;;;;;;;0.13;0.13;;;;;;;;;;5033260;28;20116;-71
2022/11/02 00:36:46;;;;;;;0.30;0.30;;;;;;;;;;5031732;28;20061;-71
2022/11/02 00:39:12;;;;;;;0.10;0.10;;;;;;;;;;5031265;28;20033;-72
2022/11/02 00:41:37;;;;;;;0.10;0.10;;;;;;;;;;5031640;28;20128;-73
2022/11/02 00:44:03;;;;;;;0.75;0.75;;;;;;;;;;5021630;28;20117;-74
2022/11/02 00:46:28;;;;;;;0.10;0.10;;;;;;;;;;5012127;28;20044;-72
2022/11/02 00:48:54;;;;;;;0.65;0.65;;;;;;;;;;5011869;28;20029;-72
2022/11/02 00:51:19;;;;;;;0.10;0.10;;;;;;;;;;5011843;28;20037;-71
2022/11/02 00:53:45;;;;;;;0.10;0.10;;;;;;;;;;5011772;28;20038;-71
2022/11/02 00:56:10;;;;;;;0.45;0.45;;;;;;;;;;5011709;28;20030;-71
2022/11/02 00:58:36;;;;;;;0.10;0.10;;;;;;;;;;5014153;28;20411;-71
2022/11/02 01:01:05;;;;;;;0.28;0.28;;;;;;;;;;5032944;28;20025;-71
2022/11/02 01:03:30;;;;;;;0.20;0.20;;;;;;;;;;5032859;28;20037;-71
2022/11/02 01:05:56;;;;;;;0.52;0.52;;;;;;;;;;5035208;28;20388;-72
2022/11/02 01:08:21;;;;;;;0.20;0.20;;;;;;;;;;5036577;28;20798;-72
2022/11/02 01:10:47;;;;;;;0.30;0.30;;;;;;;;;;5036243;28;20025;-71
2022/11/02 01:13:12;;;;;;;0.30;0.30;;;;;;;;;;5051518;28;20032;-70
2022/11/02 01:15:38;;;;;;;2.95;2.83;;;;;;;;;;5051429;28;20036;-70
2022/11/02 01:18:04;;;;;;;5.78;5.25;;;;;;;;;;5050611;28;20025;-71
2022/11/02 01:20:30;;;;;;;2.85;1.35;;;;;;;;;;5043126;28;20037;-72
2022/11/02 01:22:56;;;;;;;0.15;0.15;;;;;;;;;;5035984;28;20462;-72
2022/11/02 01:25:22;;;;;;;1.05;1.00;;;;;;;;;;5034107;28;20037;-72
2022/11/02 01:27:49;;;;;;;0.45;0.45;;;;;;;;;;5034712;28;20033;-73
2022/11/02 01:30:15;;;;;;;0.10;0.10;;;;;;;;;;5034471;28;20093;-72
2022/11/02 01:32:42;;;;;;;0.57;0.57;;;;;;;;;;5035511;28;20464;-72
2022/11/02 01:35:09;;;;;;;0.85;0.85;;;;;;;;;;5035949;28;20033;-72
2022/11/02 01:37:37;;;;;;;0.13;0.13;;;;;;;;;;5034378;28;20057;-72
2022/11/02 01:40:02;;;;;;;0.20;0.20;;;;;;;;;;5035405;28;20507;-72
2022/11/02 01:42:28;;;;;;;7.43;7.03;;;;;;;;;;5035824;28;20018;-73
2022/11/02 01:44:55;;;;;;;0.10;0.10;;;;;;;;;;5018120;28;20459;-72
2022/11/02 01:47:20;;;;;;;0.73;0.73;;;;;;;;;;5017863;28;20108;-72
2022/11/02 01:49:47;;;;;;;0.63;0.63;;;;;;;;;;5035544;28;20025;-72
2022/11/02 01:52:20;;;;;;;0.10;0.10;;;;;;;;;;5035079;28;20471;-71
2022/11/02 01:55:08;;;;;;;1.40;1.38;;;;;;;;;;5032687;28;20045;-71
2022/11/02 01:57:34;;;;;;;0.60;0.60;;;;;;;;;;5017456;28;20480;-72
2022/11/02 02:00:05;;;;;;;0.20;0.20;;;;;;;;;;5034040;28;20465;-72
2022/11/02 02:02:42;;;;;;;0.25;0.25;;;;;;;;;;5034599;28;20044;-72
2022/11/02 02:05:09;;;;;;;1.08;1.05;;;;;;;;;;5033704;28;20481;-72
2022/11/02 02:07:36;;;;;;;0.25;0.25;;;;;;;;;;5017581;28;20040;-70
2022/11/02 02:10:03;;;;;;;0.47;0.47;;;;;;;;;;5034038;28;20021;-70
2022/11/02 02:12:29;;;;;;;6.88;6.43;;;;;;;;;;5035062;28;20039;-71
2022/11/02 02:14:54;;;;;;;0.20;0.20;;;;;;;;;;5017358;28;20026;-73
2022/11/02 02:17:27;;;;;;;0.10;0.10;;;;;;;;;;5013777;28;20045;-73
2022/11/02 02:20:09;;;;;;;0.25;0.25;;;;;;;;;;5013754;28;20033;-72
2022/11/02 02:23:01;;;;;;;0.10;0.10;;;;;;;;;;5013663;28;20076;-73
2022/11/02 02:25:45;;;;;;;0.10;0.10;;;;;;;;;;5015121;28;20022;-72
2022/11/02 02:28:18;;;;;;;4.75;1.27;;;;;;;;;;5013498;28;20034;-72
2022/11/02 02:30:55;;;;;;;0.30;0.30;;;;;;;;;;5014062;28;20433;-73
2022/11/02 02:33:25;;;;;;;0.20;0.20;;;;;;;;;;5013659;28;20412;-73
2022/11/02 02:35:55;;;;;;;0.20;0.20;;;;;;;;;;5013571;28;20056;-73
2022/11/02 02:38:24;;;;;;;0.13;0.13;;;;;;;;;;5013466;28;20042;-73
2022/11/02 02:40:53;;;;;;;0.25;0.25;;;;;;;;;;5013372;28;20037;-73
2022/11/02 02:43:28;;;;;;;0.17;0.17;;;;;;;;;;5014805;28;20034;-73
2022/11/02 02:45:59;;;;;;;0.20;0.20;;;;;;;;;;5013887;28;20030;-73
2022/11/02 02:48:24;;;;;;;;;;;;;;;;;;5012110;28;20034;-73
2022/11/02 02:50:51;;;;;;;0.10;0.10;;;;;;;;;;5026839;28;19909;-72
2022/11/02 02:53:24;;;;;;;0.10;0.10;;;;;;;;;;5017675;28;20125;-73
2022/11/02 02:55:50;;;;;;;0.10;0.10;;;;;;;;;;5014783;28;20065;-73
2022/11/02 02:58:28;;;;;;;0.30;0.30;;;;;;;;;;5024780;28;20147;-73
2022/11/02 03:00:54;;;;;;;0.10;0.10;;;;;;;;;;5020695;28;20087;-73
2022/11/02 03:03:24;;;;;;;0.10;0.10;;;;;;;;;;5023858;28;20056;-74
2022/11/02 03:05:50;;;;;;;;;;;;;;;;;;5016446;28;20087;-74
2022/11/02 03:08:15;;;;;;;0.10;0.10;;;;;;;;;;5032853;28;19935;-73
2022/11/02 03:11:04;;;;;;;0.10;0.10;;;;;;;;;;5032573;28;20030;-73
2022/11/02 03:13:46;;;;;;;0.10;0.10;;;;;;;;;;5033806;28;20504;-74
2022/11/02 03:16:15;;;;;;;2.45;2.28;;;;;;;;;;5033673;28;20030;-73
2022/11/02 03:18:47;;;;;;;0.75;0.75;;;;;;;;;;5033668;28;20041;-73
2022/11/02 03:21:18;;;;;;;0.75;0.75;;;;;;;;;;5032674;28;20025;-73
2022/11/02 03:23:51;;;;;;;0.20;0.20;;;;;;;;;;5033873;28;20112;-73
2022/11/02 03:26:21;;;;;;;0.10;0.10;;;;;;;;;;5032529;28;20424;-73
2022/11/02 03:28:46;;;;;;;;;;;;;;;;;;5032509;28;20029;-72
2022/11/02 03:31:15;;;;;;;0.00;0.00;;;;;;;;;;5032537;28;20386;-72
2022/11/02 03:33:44;;;;;;;0.43;0.43;;;;;;;;;;5032438;28;20029;-73
2022/11/02 03:36:16;;;;;;;0.10;0.10;;;;;;;;;;5032322;28;20026;-73
2022/11/02 03:38:44;;;;;;;0.35;0.35;;;;;;;;;;5032192;28;20095;-73
2022/11/02 03:41:11;;;;;;;0.10;0.10;;;;;;;;;;5031169;28;20029;-73
2022/11/02 03:43:37;;;;;;;0.05;0.05;;;;;;;;;;5032266;28;20033;-72
2022/11/02 03:46:05;;;;;;;0.20;0.20;;;;;;;;;;5014710;28;20025;-72
2022/11/02 03:48:34;;;;;;;0.10;0.10;;;;;;;;;;5032118;28;20485;-73
2022/11/02 03:51:03;;;;;;;0.13;0.13;;;;;;;;;;5033395;28;20108;-73
2022/11/02 03:53:31;;;;;;;0.55;0.55;;;;;;;;;;5015597;28;20033;-73
2022/11/02 03:56:05;;;;;;;0.13;0.13;;;;;;;;;;5031774;28;20087;-73
2022/11/02 03:58:32;;;;;;;0.10;0.10;;;;;;;;;;5015349;28;20500;-73
2022/11/02 04:01:00;;;;;;;0.10;0.10;;;;;;;;;;5032063;28;20168;-73
2022/11/02 04:03:27;;;;;;;0.10;0.10;;;;;;;;;;5016697;28;20413;-73
2022/11/02 04:05:53;;;;;;;0.20;0.20;;;;;;;;;;5008647;28;20029;-74
2022/11/02 04:08:33;;;;;;;0.10;0.10;;;;;;;;;;5023584;28;20033;-72
2022/11/02 04:16:38;;;;;;;0.10;0.10;;;;;;;;;;5027722;28;20037;-72
2022/11/02 04:19:27;;;;;;;0.10;0.10;;;;;;;;;;5028360;28;20072;-72
2022/11/02 04:27:27;;;;;;;7.22;6.70;;;;;;;;;;5027952;28;20076;-73
2022/11/02 04:29:54;;;;;;;5.47;3.20;;;;;;;;;;5027936;28;20370;-72
2022/11/02 04:35:07;;;;;;;0.20;0.20;;;;;;;;;;5028117;28;20400;-71
2022/11/02 04:40:23;;;;;;;0.13;0.13;;;;;;;;;;5029218;28;20037;-73
2022/11/02 04:42:49;;;;;;;0.10;0.10;;;;;;;;;;5033178;28;20032;-72
2022/11/02 04:45:15;;;;;;;0.20;0.20;;;;;;;;;;5031947;28;20029;-73
2022/11/02 04:47:41;;;;;;;0.10;0.10;;;;;;;;;;5014590;28;20079;-73
2022/11/02 04:50:07;;;;;;;0.22;0.22;;;;;;;;;;5031470;28;20029;-72
2022/11/02 04:52:32;;;;;;;0.10;0.10;;;;;;;;;;5032590;28;20013;-74
2022/11/02 04:54:58;;;;;;;0.10;0.10;;;;;;;;;;5032723;28;20064;-73
2022/11/02 04:57:24;;;;;;;0.10;0.10;;;;;;;;;;5031248;28;20522;-72
2022/11/02 04:59:49;;;;;;;0.20;0.20;;;;;;;;;;5031948;28;20037;-72
2022/11/02 05:02:15;;;;;;;0.10;0.10;;;;;;;;;;5032378;28;20104;-72
2022/11/02 05:04:42;;;;;;;0.10;0.10;;;;;;;;;;5014708;28;20544;-73
2022/11/02 05:07:09;;;;;;;0.38;0.38;;;;;;;;;;5032408;28;20091;-73
2022/11/02 05:09:35;;;;;;;0.10;0.10;;;;;;;;;;5031529;28;20022;-72
2022/11/02 05:12:03;;;;;;;0.30;0.30;;;;;;;;;;5016066;28;20037;-73
2022/11/02 05:14:30;;;;;;;0.15;0.15;;;;;;;;;;5011202;28;20091;-73
2022/11/02 05:16:58;;;;;;;0.10;0.10;;;;;;;;;;5010887;28;20037;-73
2022/11/02 05:19:24;;;;;;;0.30;0.30;;;;;;;;;;5010837;28;20034;-73
2022/11/02 05:21:50;;;;;;;0.10;0.10;;;;;;;;;;5010847;28;20397;-74
2022/11/02 05:24:16;;;;;;;0.10;0.10;;;;;;;;;;5011025;28;20029;-74
2022/11/02 05:26:42;;;;;;;0.10;0.10;;;;;;;;;;5011620;28;20049;-74
2022/11/02 05:29:07;;;;;;;0.10;0.10;;;;;;;;;;5011984;28;20058;-75
2022/11/02 05:31:33;;;;;;;0.10;0.10;;;;;;;;;;5010688;28;20117;-73
2022/11/02 05:33:59;;;;;;;0.10;0.10;;;;;;;;;;5010959;28;20163;-74
2022/11/02 05:36:24;;;;;;;0.40;0.40;;;;;;;;;;5011691;28;20401;-73
2022/11/02 05:38:52;;;;;;;0.40;0.40;;;;;;;;;;5010611;28;20037;-73
2022/11/02 05:41:18;;;;;;;0.10;0.10;;;;;;;;;;5010501;28;20060;-73
2022/11/02 05:43:44;;;;;;;0.10;0.10;;;;;;;;;;5022909;28;20480;-74
2022/11/02 05:46:15;;;;;;;0.10;0.10;;;;;;;;;;5028931;28;20041;-74
2022/11/02 05:48:41;;;;;;;0.20;0.20;;;;;;;;;;5014054;28;20032;-73
2022/11/02 05:51:06;;;;;;;0.20;0.20;;;;;;;;;;5029436;28;20388;-74
2022/11/02 05:53:36;;;;;;;0.68;0.63;;;;;;;;;;5031308;28;20084;-73
2022/11/02 05:56:01;;;;;;;;;;;;;;;;;;5032073;28;20051;-74
2022/11/02 05:58:27;;;;;;;0.33;0.33;;;;;;;;;;5030222;28;19921;-73
2022/11/02 06:00:52;;;;;;;0.15;0.15;;;;;;;;;;5030109;28;20029;-71
2022/11/02 06:03:18;;;;;;;0.43;0.43;;;;;;;;;;5016179;28;20481;-74
2022/11/02 06:05:43;;;;;;;0.20;0.20;;;;;;;;;;5029187;28;20037;-72
2022/11/02 06:08:09;;;;;;;4.10;3.88;;;;;;;;;;5030359;28;20381;-74
2022/11/02 06:10:34;;;;;;;0.10;0.10;;;;;;;;;;5030217;28;20036;-74
2022/11/02 06:13:00;;;;;;;1.00;1.00;;;;;;;;;;5031204;28;20025;-72
2022/11/02 06:15:27;;;;;;;0.10;0.10;;;;;;;;;;5014447;28;20026;-74
2022/11/02 06:17:52;;;;;;;0.10;0.10;;;;;;;;;;5011563;28;20057;-73
2022/11/02 06:20:18;;;;;;;0.15;0.15;;;;;;;;;;5010787;28;20073;-73
2022/11/02 06:22:44;;;;;;;1.30;1.30;;;;;;;;;;5011595;28;20084;-71
2022/11/02 06:25:09;;;;;;;0.10;0.10;;;;;;;;;;5010975;28;20026;-73
2022/11/02 06:27:35;;;;;;;0.20;0.20;;;;;;;;;;5022265;28;20021;-73
2022/11/02 06:30:03;;;;;;;0.10;0.10;;;;;;;;;;5029837;28;20033;-73
2022/11/02 06:32:28;;;;;;;0.10;0.10;;;;;;;;;;5030800;28;20029;-73
2022/11/02 06:34:54;;;;;;;0.10;0.10;;;;;;;;;;5030840;28;20097;-72
2022/11/02 06:37:19;;;;;;;0.10;0.10;;;;;;;;;;5030837;28;20025;-72
2022/11/02 06:39:45;;;;;;;0.10;0.10;;;;;;;;;;5030821;28;20037;-71
2022/11/02 06:42:10;;;;;;;0.10;0.10;;;;;;;;;;5030751;28;20025;-72
2022/11/02 06:44:35;;;;;;;0.60;0.60;;;;;;;;;;5030515;28;20065;-72
2022/11/02 06:47:01;;;;;;;0.10;0.10;;;;;;;;;;5029598;28;20040;-73
2022/11/02 06:49:26;;;;;;;0.10;0.10;;;;;;;;;;5029475;28;20124;-73
2022/11/02 06:51:52;;;;;;;1.75;1.65;;;;;;;;;;5029757;28;20041;-71
2022/11/02 06:54:17;;;;;;;0.10;0.10;;;;;;;;;;5030205;28;20036;-72
2022/11/02 06:56:43;;;;;;;0.20;0.20;;;;;;;;;;5030846;28;20097;-72
2022/11/02 06:59:08;;;;;;;0.40;0.40;;;;;;;;;;5030212;28;20447;-73
2022/11/02 07:01:34;;;;;;;11.25;5.78;;;;;;;;;;5030777;28;20512;-71
2022/11/02 07:04:00;;;;;;;0.30;0.30;;;;;;;;;;5029858;28;20383;-72
2022/11/02 07:06:25;;;;;;;1.35;1.10;;;;;;;;;;5030288;28;20037;-72
2022/11/02 07:08:50;;;;;;;0.20;0.20;;;;;;;;;;5030456;28;20033;-73
2022/11/02 07:11:16;;;;;;;0.93;0.93;;;;;;;;;;5030774;28;20457;-72
2022/11/02 07:13:42;;;;;;;0.20;0.20;;;;;;;;;;5041092;28;20034;-71
2022/11/02 07:16:07;;;;;;;0.38;0.38;;;;;;;;;;5044924;28;20053;-73
2022/11/02 07:18:33;;;;;;;0.52;0.52;;;;;;;;;;5043335;28;20384;-72
2022/11/02 07:20:58;;;;;;;0.25;0.25;;;;;;;;;;5041163;28;20101;-73
2022/11/02 07:23:24;;;;;;;1.15;1.13;;;;;;;;;;5030413;28;20021;-72
2022/11/02 07:25:49;;;;;;;0.68;0.68;;;;;;;;;;5030433;28;20029;-72
2022/11/02 07:28:15;;;;;;;0.40;0.40;;;;;;;;;;5029030;28;20492;-72
2022/11/02 07:30:40;;;;;;;0.10;0.10;;;;;;;;;;5030549;28;20117;-73
2022/11/02 07:33:05;;;;;;;0.30;0.30;;;;;;;;;;5030134;28;20022;-72
2022/11/02 07:35:33;;;;;;;1.02;0.47;;;;;;;;;;5029858;28;20029;-73
2022/11/02 07:37:59;;;;;;;1.60;1.50;;;;;;;;;;5024688;28;20038;-73
2022/11/02 07:40:25;;;;;;;1.35;1.27;;;;;;;;;;5009948;28;20025;-73
2022/11/02 07:42:52;;;;;;;0.50;0.50;;;;;;;;;;5009112;28;20030;-72
2022/11/02 07:45:20;;;;;;;;;;;;;;;;;;5022525;28;20076;-72
2022/11/02 07:47:45;;;;;;;0.20;0.20;;;;;;;;;;5028658;28;19936;-72
2022/11/02 07:50:11;;;;;;;0.77;0.77;;;;;;;;;;5028816;28;20112;-74
2022/11/02 07:52:47;;;;;;;3.40;1.85;;;;;;;;;;5012178;28;20033;-73
2022/11/02 07:55:13;;;;;;;1.23;1.13;;;;;;;;;;5029415;28;20384;-72
2022/11/02 07:57:39;;;;;;;0.85;0.85;;;;;;;;;;5029245;28;20137;-73
2022/11/02 08:00:04;;;;;;;0.20;0.20;;;;;;;;;;5029475;28;20116;-71
2022/11/02 08:02:37;;;;;;;1.27;1.27;;;;;;;;;;5029504;28;20025;-74
2022/11/02 08:05:03;;;;;;;0.73;0.73;;;;;;;;;;5028495;28;20117;-68
2022/11/02 08:07:29;;;;;;;0.70;0.70;;;;;;;;;;5029163;28;20032;-68
2022/11/02 08:09:54;;;;;;;0.20;0.20;;;;;;;;;;5029823;28;20041;-68
2022/11/02 08:12:19;;;;;;;2.10;1.90;;;;;;;;;;5028468;28;20060;-68
2022/11/02 08:14:45;;;;;;;0.20;0.20;;;;;;;;;;5030981;28;20112;-69
2022/11/02 08:17:10;;;;;;;0.73;0.73;;;;;;;;;;5032773;28;20091;-68
2022/11/02 08:19:36;;;;;;;5.13;4.88;;;;;;;;;;5032843;28;20049;-68
2022/11/02 08:22:02;;;;;;;1.60;1.50;;;;;;;;;;5033007;28;20034;-69
2022/11/02 08:24:27;;;;;;;0.32;0.32;;;;;;;;;;5033035;28;20510;-69
2022/11/02 08:26:53;;;;;;;1.20;1.20;;;;;;;;;;5033105;28;20057;-69
2022/11/02 08:29:18;;;;;;;0.47;0.47;;;;;;;;;;5032276;28;20112;-73
2022/11/02 08:31:44;;;;;;;0.20;0.20;;;;;;;;;;5033134;28;20112;-71
2022/11/02 08:34:10;;;;;;;0.50;0.50;;;;;;;;;;5031816;28;20029;-71
2022/11/02 08:36:36;;;;;;;0.20;0.20;;;;;;;;;;5033051;28;20536;-71
2022/11/02 08:39:01;;;;;;;0.30;0.30;;;;;;;;;;5032886;28;20120;-72
2022/11/02 08:41:27;;;;;;;0.20;0.20;;;;;;;;;;5031812;28;20927;-70
2022/11/02 08:43:52;;;;;;;0.40;0.40;;;;;;;;;;5031412;28;20014;-71
2022/11/02 08:46:18;;;;;;;0.20;0.20;;;;;;;;;;5032824;28;20026;-70
2022/11/02 08:48:44;;;;;;;0.20;0.20;;;;;;;;;;5032478;28;20041;-70
2022/11/02 08:51:09;;;;;;;1.13;0.50;;;;;;;;;;5032823;28;20021;-70
2022/11/02 08:53:35;;;;;;;0.52;0.52;;;;;;;;;;5032118;28;20103;-70
2022/11/02 08:56:00;;;;;;;0.20;0.20;;;;;;;;;;5023737;28;20034;-70
2022/11/02 08:58:26;;;;;;;1.05;1.05;;;;;;;;;;5031433;28;20080;-70
2022/11/02 09:00:52;;;;;;;0.65;0.60;;;;;;;;;;5029416;28;20021;-70
2022/11/02 09:03:18;;;;;;;0.20;0.20;;;;;;;;;;5032549;28;20037;-70
2022/11/02 09:05:45;;;;;;;0.30;0.30;;;;;;;;;;5032650;28;20057;-72
2022/11/02 09:08:15;;;;;;;0.75;0.75;;;;;;;;;;5031384;28;20026;-72
2022/11/02 09:10:41;;;;;;;1.55;0.60;;;;;;;;;;5026820;28;20520;-73
2022/11/02 09:13:08;;;;;;;3.08;2.38;;;;;;;;;;5015365;28;20061;-71
2022/11/02 09:15:35;;;;;;;6.03;4.47;;;;;;;;;;5024340;28;20487;-73
2022/11/02 09:18:01;;;;;;;0.38;0.38;;;;;;;;;;5031112;28;20098;-73
2022/11/02 09:20:26;;;;;;;0.30;0.30;;;;;;;;;;5028377;28;20017;-69
2022/11/02 09:22:52;;;;;;;0.60;0.60;;;;;;;;;;5016559;28;20030;-70
2022/11/02 09:25:17;;;;;;;0.20;0.20;;;;;;;;;;5011884;28;20037;-71
2022/11/02 09:27:43;;;;;;;0.20;0.20;;;;;;;;;;5017524;28;20499;-72
2022/11/02 09:30:09;;;;;;;0.88;0.75;;;;;;;;;;5032020;28;20041;-75
2022/11/02 09:32:35;;;;;;;0.75;0.75;;;;;;;;;;5020874;28;20034;-73
2022/11/02 09:35:01;;;;;;;3.92;3.72;;;;;;;;;;5016907;28;20033;-71
2022/11/02 09:37:26;;;;;;;0.40;0.40;;;;;;;;;;5029112;28;20041;-71
2022/11/02 09:39:52;;;;;;;0.20;0.20;;;;;;;;;;5010453;28;20028;-72
2022/11/02 09:42:36;;;;;;;0.20;0.20;;;;;;;;;;5028313;28;20463;-72
2022/11/02 09:45:04;;;;;;;0.55;0.55;;;;;;;;;;5022621;28;20350;-72
2022/11/02 09:47:31;;;;;;;0.30;0.30;;;;;;;;;;5029748;28;20032;-71
2022/11/02 09:49:59;;;;;;;1.02;0.90;;;;;;;;;;5029828;28;20183;-71
2022/11/02 09:52:35;;;;;;;0.50;0.50;;;;;;;;;;5030070;28;20094;-75
2022/11/02 09:55:03;;;;;;;0.20;0.20;;;;;;;;;;5029552;28;20052;-72
2022/11/02 09:57:29;;;;;;;2.08;1.40;;;;;;;;;;5028830;28;20080;-72
2022/11/02 09:59:55;;;;;;;0.30;0.30;;;;;;;;;;5018673;28;20058;-72
2022/11/02 10:02:26;;;;;;;0.30;0.30;;;;;;;;;;5009769;28;20104;-72
2022/11/02 10:05:11;;;;;;;58.35;15.23;;;;;;;;;;5023339;28;20026;-71
2022/11/02 10:07:56;;;;;;;0.25;0.25;;;;;;;;;;5023606;28;20481;-73
2022/11/02 10:10:26;;;;;;;5.38;2.95;;;;;;;;;;5017301;28;20041;-72
2022/11/02 10:12:51;;;;;;;;;;;;;;;;;;5027230;28;20041;-70
2022/11/02 10:15:30;;;;;;;0.20;0.20;;;;;;;;;;5025455;28;19916;-71
2022/11/02 10:17:57;;;;;;;1.75;1.65;;;;;;;;;;5026286;28;20041;-73
2022/11/02 10:20:35;;;;;;;0.30;0.30;;;;;;;;;;5024447;28;20493;-73
2022/11/02 10:23:06;;;;;;;0.20;0.20;;;;;;;;;;5026278;28;20037;-74
2022/11/02 10:25:32;;;;;;;0.28;0.28;;;;;;;;;;5027707;28;20041;-72
2022/11/02 10:28:04;;;;;;;0.20;0.20;;;;;;;;;;5027221;28;20116;-72
2022/11/02 10:30:30;;;;;;;0.52;0.30;;;;;;;;;;5026940;28;20037;-72
2022/11/02 10:32:56;;;;;;;0.40;0.40;;;;;;;;;;5026705;28;20777;-73
2022/11/02 10:35:21;;;;;;;0.20;0.20;;;;;;;;;;5025646;28;20033;-73
2022/11/02 10:37:50;;;;;;;2.13;1.20;;;;;;;;;;5025960;28;20051;-72
2022/11/02 10:40:34;;;;;;;0.30;0.30;;;;;;;;;;5026949;28;20488;-77
2022/11/02 10:43:02;;;;;;;0.20;0.20;;;;;;;;;;5027729;28;20103;-73
2022/11/02 10:45:37;;;;;;;2.03;1.92;;;;;;;;;;5026799;28;20029;-73
2022/11/02 10:48:09;;;;;;;0.28;0.28;;;;;;;;;;5021667;28;20113;-74
2022/11/02 10:50:53;;;;;;;3.72;1.52;;;;;;;;;;5025778;28;20710;-73
2022/11/02 10:53:20;;;;;;;0.40;0.40;;;;;;;;;;5026296;28;20915;-74
2022/11/02 10:55:54;;;;;;;2.50;1.35;;;;;;;;;;5028496;28;20548;-73
2022/11/02 10:58:20;;;;;;;3.85;1.58;;;;;;;;;;5025848;28;20053;-74
2022/11/02 11:00:51;;;;;;;0.47;0.47;;;;;;;;;;5029056;28;20064;-70
2022/11/02 11:03:17;;;;;;;0.40;0.40;;;;;;;;;;5028566;28;20273;-72
2022/11/02 11:05:58;;;;;;;0.20;0.20;;;;;;;;;;5027169;28;20041;-73
2022/11/02 11:08:32;;;;;;;0.20;0.20;;;;;;;;;;5027599;28;20041;-73
2022/11/02 11:11:13;;;;;;;0.20;0.20;;;;;;;;;;5010454;28;20030;-73
2022/11/02 11:13:39;;;;;;;0.20;0.20;;;;;;;;;;5028440;28;20037;-73
2022/11/02 11:16:05;;;;;;;0.20;0.20;;;;;;;;;;5028412;28;20029;-73
2022/11/02 11:18:30;;;;;;;0.20;0.20;;;;;;;;;;5027569;28;20041;-73
2022/11/02 11:20:56;;;;;;;0.20;0.20;;;;;;;;;;5026632;28;20052;-73
2022/11/02 11:23:23;;;;;;;0.20;0.20;;;;;;;;;;5028074;28;20091;-73
2022/11/02 11:25:57;;;;;;;0.20;0.20;;;;;;;;;;5028611;28;20034;-73
2022/11/02 11:28:27;;;;;;;0.20;0.20;;;;;;;;;;5027439;28;20675;-72
2022/11/02 11:31:07;;;;;;;0.20;0.20;;;;;;;;;;5019856;28;20029;-75
2022/11/02 11:33:40;;;;;;;0.20;0.20;;;;;;;;;;5007643;28;20433;-74
2022/11/02 11:36:07;;;;;;;0.20;0.20;;;;;;;;;;5008803;28;20030;-72
2022/11/02 11:38:32;;;;;;;0.22;0.22;;;;;;;;;;5006611;28;20054;-75
2022/11/02 11:40:58;;;;;;;0.20;0.20;;;;;;;;;;5007173;28;20087;-74
2022/11/02 11:43:25;;;;;;;0.95;0.82;;;;;;;;;;5008884;28;20860;-73
2022/11/02 11:45:59;;;;;;;1.08;1.05;;;;;;;;;;5008587;28;20109;-71
2022/11/02 11:48:35;;;;;;;0.20;0.20;;;;;;;;;;5007607;28;20107;-74
2022/11/02 11:51:02;;;;;;;0.63;0.47;;;;;;;;;;5006826;28;20399;-72
2022/11/02 11:53:28;;;;;;;0.55;0.55;;;;;;;;;;5008299;28;20466;-72
2022/11/02 11:55:54;;;;;;;0.28;0.28;;;;;;;;;;5008164;28;20052;-73
2022/11/02 11:58:27;;;;;;;0.28;0.28;;;;;;;;;;5011784;28;20049;-71
2022/11/02 12:01:02;;;;;;;0.28;0.28;;;;;;;;;;5025581;28;20049;-71
2022/11/02 12:03:27;;;;;;;0.45;0.38;;;;;;;;;;5027309;28;20034;-72
2022/11/02 12:06:05;;;;;;;0.45;0.45;;;;;;;;;;5022384;28;20029;-72
2022/11/02 12:08:30;;;;;;;0.20;0.20;;;;;;;;;;5022513;28;20030;-72
2022/11/02 12:10:56;;;;;;;1.17;0.85;;;;;;;;;;5021553;28;20037;-72
2022/11/02 12:13:24;;;;;;;2.45;2.35;;;;;;;;;;5020035;28;20485;-71
2022/11/02 12:16:08;;;;;;;0.30;0.30;;;;;;;;;;5018542;28;20026;-72
2022/11/02 12:18:52;;;;;;;1.20;1.10;;;;;;;;;;5017221;28;20037;-72
2022/11/02 12:21:24;;;;;;;0.20;0.20;;;;;;;;;;5025338;28;20169;-72
2022/11/02 12:24:05;;;;;;;1.70;0.80;;;;;;;;;;5026456;28;20071;-73
2022/11/02 12:26:42;;;;;;;3.65;0.63;;;;;;;;;;5025140;28;20025;-72
2022/11/02 12:29:26;;;;;;;2.80;2.65;;;;;;;;;;5025476;28;20424;-73
2022/11/02 12:32:14;;;;;;;0.50;0.50;;;;;;;;;;5019520;28;20087;-72
2022/11/02 12:34:40;;;;;;;0.40;0.40;;;;;;;;;;5021741;28;20037;-71
2022/11/02 12:37:22;;;;;;;0.75;0.60;;;;;;;;;;5020287;28;20057;-72
2022/11/02 12:39:56;;;;;;;2.90;1.92;;;;;;;;;;5010500;28;20049;-73
2022/11/02 12:42:25;;;;;;;0.30;0.30;;;;;;;;;;5020138;28;20018;-71
2022/11/02 12:45:09;;;;;;;0.40;0.40;;;;;;;;;;5025189;28;20025;-71
2022/11/02 12:47:51;;;;;;;0.98;0.47;;;;;;;;;;5006886;28;20057;-73
2022/11/02 12:50:52;;;;;;;0.30;0.30;;;;;;;;;;5017541;28;20037;-73
2022/11/02 12:53:23;;;;;;;1.20;1.00;;;;;;;;;;5001131;28;20040;-72
2022/11/02 12:55:51;;;;;;;0.55;0.50;;;;;;;;;;5020390;28;20037;-72
2022/11/02 12:58:20;;;;;;;0.30;0.30;;;;;;;;;;5024332;28;20136;-73
2022/11/02 13:00:48;;;;;;;0.55;0.55;;;;;;;;;;5016670;28;20071;-72
2022/11/02 13:03:30;;;;;;;0.20;0.20;;;;;;;;;;5027169;28;20036;-72
2022/11/02 13:06:02;;;;;;;12.85;2.92;;;;;;;;;;5018673;28;20037;-73
2022/11/02 13:08:34;;;;;;;0.20;0.20;;;;;;;;;;5044202;28;20555;-72
2022/11/02 13:11:03;;;;;;;1.40;1.27;;;;;;;;;;5039572;28;20038;-72
2022/11/02 13:13:33;;;;;;;0.60;0.60;;;;;;;;;;5017907;28;20026;-72
2022/11/02 13:16:00;;;;;;;0.38;0.38;;;;;;;;;;5011646;28;20021;-71
2022/11/02 13:18:29;;;;;;;2.63;2.17;;;;;;;;;;5010453;28;20048;-71
2022/11/02 13:20:56;;;;;;;0.30;0.30;;;;;;;;;;5013457;28;20021;-71
2022/11/02 13:23:34;;;;;;;0.30;0.30;;;;;;;;;;5027329;28;20469;-72
2022/11/02 13:26:02;;;;;;;0.22;0.22;;;;;;;;;;5029114;28;20412;-71
2022/11/02 13:28:39;;;;;;;1.70;1.15;;;;;;;;;;5029219;28;20034;-72
2022/11/02 13:31:08;;;;;;;1.58;0.95;;;;;;;;;;5030667;28;20056;-71
2022/11/02 13:33:47;;;;;;;0.68;0.68;;;;;;;;;;5029732;28;20481;-70
2022/11/02 13:36:13;;;;;;;0.68;0.68;;;;;;;;;;5030395;28;20030;-71
2022/11/02 13:38:44;;;;;;;0.82;0.73;;;;;;;;;;5027832;28;20389;-71
2022/11/02 13:41:22;;;;;;;0.20;0.20;;;;;;;;;;5029560;28;20501;-71
2022/11/02 13:44:06;;;;;;;0.52;0.45;;;;;;;;;;5026418;28;20029;-70
2022/11/02 13:46:36;;;;;;;2.22;1.33;;;;;;;;;;5007922;28;20076;-72
2022/11/02 13:49:13;;;;;;;0.40;0.40;;;;;;;;;;5023717;28;20388;-70
2022/11/02 13:51:38;;;;;;;0.20;0.20;;;;;;;;;;5010204;28;20358;-72
2022/11/02 13:54:04;;;;;;;0.20;0.20;;;;;;;;;;5010166;28;20024;-72
2022/11/02 13:56:29;;;;;;;0.25;0.25;;;;;;;;;;5009270;28;20026;-71
2022/11/02 13:58:57;;;;;;;8.57;0.98;;;;;;;;;;5009364;28;20136;-71
2022/11/02 14:01:23;;;;;;;2.95;2.75;;;;;;;;;;5031215;28;20025;-71
2022/11/02 14:03:57;;;;;;;0.20;0.20;;;;;;;;;;5019088;28;20030;-70
2022/11/02 14:06:23;;;;;;;0.25;0.25;;;;;;;;;;5011626;28;20112;-70
2022/11/02 14:08:52;;;;;;;0.40;0.40;;;;;;;;;;5028261;28;20038;-70
2022/11/02 14:11:17;;;;;;;0.40;0.40;;;;;;;;;;5031259;28;20040;-70
2022/11/02 14:13:52;;;;;;;0.88;0.82;;;;;;;;;;5031112;28;20025;-70
2022/11/02 14:16:36;;;;;;;0.40;0.40;;;;;;;;;;5018294;28;20030;-70
2022/11/02 14:19:17;;;;;;;0.25;0.25;;;;;;;;;;5016531;28;20175;-70
2022/11/02 14:21:58;;;;;;;0.47;0.47;;;;;;;;;;5023576;28;20461;-70
2022/11/02 14:24:35;;;;;;;0.55;0.52;;;;;;;;;;5029721;28;20030;-69
2022/11/02 14:27:22;;;;;;;0.28;0.28;;;;;;;;;;5031201;28;20027;-70
2022/11/02 14:29:51;;;;;;;0.30;0.30;;;;;;;;;;5028969;28;20081;-69
2022/11/02 14:32:20;;;;;;;0.30;0.30;;;;;;;;;;5026292;28;20148;-69
2022/11/02 14:34:55;;;;;;;3.00;0.57;;;;;;;;;;5022739;28;20022;-69
2022/11/02 14:37:20;;;;;;;0.20;0.20;;;;;;;;;;5031195;28;20079;-69
2022/11/02 14:39:46;;;;;;;0.60;0.50;;;;;;;;;;5030737;28;20029;-69
2022/11/02 14:42:23;;;;;;;0.40;0.40;;;;;;;;;;5029455;28;20036;-70
2022/11/02 14:44:55;;;;;;;0.68;0.68;;;;;;;;;;5029610;28;20041;-69
2022/11/02 14:47:25;;;;;;;0.20;0.20;;;;;;;;;;5010974;28;20531;-68
2022/11/02 14:49:54;;;;;;;0.20;0.20;;;;;;;;;;5010842;28;20120;-69
2022/11/02 14:52:20;;;;;;;;;;;;;;;;;;5011186;28;20087;-69
2022/11/02 14:54:47;;;;;;;0.20;0.20;;;;;;;;;;5009642;28;20406;-70
2022/11/02 14:57:24;;;;;;;0.63;0.63;;;;;;;;;;5010445;28;20424;-69
2022/11/02 14:59:52;;;;;;;4.75;1.15;;;;;;;;;;5010463;28;20045;-71
2022/11/02 15:02:32;;;;;;;0.57;0.50;;;;;;;;;;5010238;28;20449;-69
2022/11/02 15:04:59;;;;;;;0.30;0.30;;;;;;;;;;5010547;28;20021;-71
2022/11/02 15:07:43;;;;;;;0.95;0.82;;;;;;;;;;5010672;28;20025;-69
2022/11/02 15:10:14;;;;;;;0.22;0.22;;;;;;;;;;5015723;28;20017;-70
2022/11/02 15:12:41;;;;;;;1.38;1.15;;;;;;;;;;5029977;28;20026;-69